sensor_id;sensor_type;location;lat;lon;timestamp;P1;durP1;ratioP1;P2;durP2;ratioP2
84288;SDS011;75147;50.294;18.660;2024-01-10T00:01:30;56.28;;;27.15;;
84288;SDS011;75147;50.294;18.660;2024-01-10T00:03:56;64.43;;;31.38;;
84288;SDS011;75147;50.294;18.660;2024-01-10T00:06:21;73.32;;;30.98;;
84288;SDS011;75147;50.294;18.660;2024-01-10T00:08:48;86.55;;;35.00;;
84288;SDS011;75147;50.294;18.660;2024-01-10T00:11:13;64.28;;;31.27;;
84288;SDS011;75147;50.294;18.660;2024-01-10T00:13:39;74.47;;;29.02;;
84288;SDS011;75147;50.294;18.660;2024-01-10T00:16:04;72.22;;;30.08;;
84288;SDS011;75147;50.294;18.660;2024-01-10T00:18:30;78.80;;;32.25;;
84288;SDS011;75147;50.294;18.660;2024-01-10T00:20:55;76.07;;;29.02;;
84288;SDS011;75147;50.294;18.660;2024-01-10T00:23:21;67.80;;;30.17;;
84288;SDS011;75147;50.294;18.660;2024-01-10T00:25:47;65.45;;;26.10;;
84288;SDS011;75147;50.294;18.660;2024-01-10T00:28:15;79.05;;;31.55;;
84288;SDS011;75147;50.294;18.660;2024-01-10T00:30:46;67.78;;;29.60;;
84288;SDS011;75147;50.294;18.660;2024-01-10T00:33:14;87.15;;;32.80;;
84288;SDS011;75147;50.294;18.660;2024-01-10T00:35:40;64.57;;;30.92;;
84288;SDS011;75147;50.294;18.660;2024-01-10T00:38:05;69.65;;;30.08;;
84288;SDS011;75147;50.294;18.660;2024-01-10T00:40:31;97.93;;;35.83;;
84288;SDS011;75147;50.294;18.660;2024-01-10T00:42:56;102.15;;;40.58;;
84288;SDS011;75147;50.294;18.660;2024-01-10T00:45:22;88.22;;;36.90;;
84288;SDS011;75147;50.294;18.660;2024-01-10T00:47:50;88.80;;;36.53;;
84288;SDS011;75147;50.294;18.660;2024-01-10T00:50:16;93.50;;;39.47;;
84288;SDS011;75147;50.294;18.660;2024-01-10T00:52:42;74.38;;;32.50;;
84288;SDS011;75147;50.294;18.660;2024-01-10T00:55:09;81.70;;;33.92;;
84288;SDS011;75147;50.294;18.660;2024-01-10T00:57:34;83.90;;;34.10;;
84288;SDS011;75147;50.294;18.660;2024-01-10T01:00:00;65.32;;;32.00;;
84288;SDS011;75147;50.294;18.660;2024-01-10T01:02:25;70.20;;;30.40;;
84288;SDS011;75147;50.294;18.660;2024-01-10T01:04:51;65.47;;;30.30;;
84288;SDS011;75147;50.294;18.660;2024-01-10T01:07:16;79.25;;;32.55;;
84288;SDS011;75147;50.294;18.660;2024-01-10T01:09:41;73.55;;;34.85;;
84288;SDS011;75147;50.294;18.660;2024-01-10T01:12:07;56.15;;;27.88;;
84288;SDS011;75147;50.294;18.660;2024-01-10T01:14:32;74.43;;;32.15;;
84288;SDS011;75147;50.294;18.660;2024-01-10T01:16:58;66.43;;;25.63;;
84288;SDS011;75147;50.294;18.660;2024-01-10T01:19:23;64.07;;;28.27;;
84288;SDS011;75147;50.294;18.660;2024-01-10T01:21:49;73.85;;;27.30;;
84288;SDS011;75147;50.294;18.660;2024-01-10T01:24:14;59.28;;;27.80;;
84288;SDS011;75147;50.294;18.660;2024-01-10T01:26:39;63.83;;;26.58;;
84288;SDS011;75147;50.294;18.660;2024-01-10T01:29:05;68.28;;;29.65;;
84288;SDS011;75147;50.294;18.660;2024-01-10T01:31:30;64.07;;;26.60;;
84288;SDS011;75147;50.294;18.660;2024-01-10T01:33:56;52.60;;;26.38;;
84288;SDS011;75147;50.294;18.660;2024-01-10T01:36:22;42.15;;;21.75;;
84288;SDS011;75147;50.294;18.660;2024-01-10T01:38:48;57.78;;;25.90;;
84288;SDS011;75147;50.294;18.660;2024-01-10T01:41:13;43.83;;;23.85;;
84288;SDS011;75147;50.294;18.660;2024-01-10T01:43:40;61.88;;;25.00;;
84288;SDS011;75147;50.294;18.660;2024-01-10T01:46:06;55.95;;;24.50;;
84288;SDS011;75147;50.294;18.660;2024-01-10T01:48:32;57.90;;;25.60;;
84288;SDS011;75147;50.294;18.660;2024-01-10T01:51:00;59.05;;;26.55;;
84288;SDS011;75147;50.294;18.660;2024-01-10T01:53:28;61.80;;;25.15;;
84288;SDS011;75147;50.294;18.660;2024-01-10T01:55:54;54.28;;;25.48;;
84288;SDS011;75147;50.294;18.660;2024-01-10T01:58:20;66.93;;;26.60;;
84288;SDS011;75147;50.294;18.660;2024-01-10T02:00:45;52.38;;;24.38;;
84288;SDS011;75147;50.294;18.660;2024-01-10T02:03:11;50.78;;;23.77;;
84288;SDS011;75147;50.294;18.660;2024-01-10T02:05:37;62.70;;;24.38;;
84288;SDS011;75147;50.294;18.660;2024-01-10T02:08:02;57.45;;;27.05;;
84288;SDS011;75147;50.294;18.660;2024-01-10T02:10:27;48.95;;;25.33;;
84288;SDS011;75147;50.294;18.660;2024-01-10T02:12:53;59.13;;;28.00;;
84288;SDS011;75147;50.294;18.660;2024-01-10T02:15:19;71.68;;;28.77;;
84288;SDS011;75147;50.294;18.660;2024-01-10T02:17:45;64.00;;;24.42;;
84288;SDS011;75147;50.294;18.660;2024-01-10T02:20:14;61.03;;;28.52;;
84288;SDS011;75147;50.294;18.660;2024-01-10T02:22:43;77.05;;;26.50;;
84288;SDS011;75147;50.294;18.660;2024-01-10T02:25:09;48.50;;;25.92;;
84288;SDS011;75147;50.294;18.660;2024-01-10T02:27:41;62.72;;;31.75;;
84288;SDS011;75147;50.294;18.660;2024-01-10T02:30:07;61.58;;;25.23;;
84288;SDS011;75147;50.294;18.660;2024-01-10T02:32:34;70.18;;;32.97;;
84288;SDS011;75147;50.294;18.660;2024-01-10T02:35:00;65.47;;;28.30;;
84288;SDS011;75147;50.294;18.660;2024-01-10T02:37:25;63.05;;;30.75;;
84288;SDS011;75147;50.294;18.660;2024-01-10T02:39:50;75.53;;;29.10;;
84288;SDS011;75147;50.294;18.660;2024-01-10T02:42:16;61.53;;;27.90;;
84288;SDS011;75147;50.294;18.660;2024-01-10T02:44:41;56.50;;;25.58;;
84288;SDS011;75147;50.294;18.660;2024-01-10T02:47:07;61.70;;;24.05;;
84288;SDS011;75147;50.294;18.660;2024-01-10T02:49:33;52.83;;;25.33;;
84288;SDS011;75147;50.294;18.660;2024-01-10T02:51:59;51.70;;;25.92;;
84288;SDS011;75147;50.294;18.660;2024-01-10T02:54:24;60.80;;;24.77;;
84288;SDS011;75147;50.294;18.660;2024-01-10T02:56:50;63.50;;;25.23;;
84288;SDS011;75147;50.294;18.660;2024-01-10T02:59:15;56.25;;;25.88;;
84288;SDS011;75147;50.294;18.660;2024-01-10T03:01:41;67.15;;;29.63;;
84288;SDS011;75147;50.294;18.660;2024-01-10T03:04:06;60.50;;;27.63;;
84288;SDS011;75147;50.294;18.660;2024-01-10T03:06:32;62.72;;;27.67;;
84288;SDS011;75147;50.294;18.660;2024-01-10T03:08:57;64.05;;;28.55;;
84288;SDS011;75147;50.294;18.660;2024-01-10T03:11:22;69.38;;;29.88;;
84288;SDS011;75147;50.294;18.660;2024-01-10T03:13:49;60.13;;;27.05;;
84288;SDS011;75147;50.294;18.660;2024-01-10T03:16:25;54.03;;;26.52;;
84288;SDS011;75147;50.294;18.660;2024-01-10T03:18:50;65.68;;;26.55;;
84288;SDS011;75147;50.294;18.660;2024-01-10T03:21:15;57.38;;;26.65;;
84288;SDS011;75147;50.294;18.660;2024-01-10T03:23:47;53.60;;;27.10;;
84288;SDS011;75147;50.294;18.660;2024-01-10T03:26:13;54.22;;;24.63;;
84288;SDS011;75147;50.294;18.660;2024-01-10T03:28:38;47.53;;;23.27;;
84288;SDS011;75147;50.294;18.660;2024-01-10T03:31:04;56.97;;;26.83;;
84288;SDS011;75147;50.294;18.660;2024-01-10T03:33:29;57.30;;;24.40;;
84288;SDS011;75147;50.294;18.660;2024-01-10T03:35:55;48.33;;;22.48;;
84288;SDS011;75147;50.294;18.660;2024-01-10T03:38:20;58.42;;;28.52;;
84288;SDS011;75147;50.294;18.660;2024-01-10T03:40:45;49.95;;;22.35;;
84288;SDS011;75147;50.294;18.660;2024-01-10T03:43:11;65.32;;;27.23;;
84288;SDS011;75147;50.294;18.660;2024-01-10T03:45:37;61.83;;;24.23;;
84288;SDS011;75147;50.294;18.660;2024-01-10T03:48:03;63.45;;;29.60;;
84288;SDS011;75147;50.294;18.660;2024-01-10T03:50:28;54.25;;;27.60;;
84288;SDS011;75147;50.294;18.660;2024-01-10T03:52:54;61.47;;;26.52;;
84288;SDS011;75147;50.294;18.660;2024-01-10T03:55:19;67.57;;;25.75;;
84288;SDS011;75147;50.294;18.660;2024-01-10T03:57:44;49.78;;;23.08;;
84288;SDS011;75147;50.294;18.660;2024-01-10T04:00:10;54.22;;;28.42;;
84288;SDS011;75147;50.294;18.660;2024-01-10T04:02:36;45.58;;;23.15;;
84288;SDS011;75147;50.294;18.660;2024-01-10T04:05:06;54.15;;;24.77;;
84288;SDS011;75147;50.294;18.660;2024-01-10T04:07:32;57.80;;;25.52;;
84288;SDS011;75147;50.294;18.660;2024-01-10T04:09:58;51.95;;;26.73;;
84288;SDS011;75147;50.294;18.660;2024-01-10T04:12:23;58.40;;;24.50;;
84288;SDS011;75147;50.294;18.660;2024-01-10T04:14:49;52.05;;;25.77;;
84288;SDS011;75147;50.294;18.660;2024-01-10T04:17:14;55.05;;;24.02;;
84288;SDS011;75147;50.294;18.660;2024-01-10T04:19:39;56.55;;;28.50;;
84288;SDS011;75147;50.294;18.660;2024-01-10T04:22:05;63.67;;;27.50;;
84288;SDS011;75147;50.294;18.660;2024-01-10T04:24:30;49.47;;;24.65;;
84288;SDS011;75147;50.294;18.660;2024-01-10T04:26:56;50.85;;;27.85;;
84288;SDS011;75147;50.294;18.660;2024-01-10T04:29:21;63.90;;;28.05;;
84288;SDS011;75147;50.294;18.660;2024-01-10T04:31:46;62.30;;;27.92;;
84288;SDS011;75147;50.294;18.660;2024-01-10T04:34:12;53.22;;;25.77;;
84288;SDS011;75147;50.294;18.660;2024-01-10T04:36:37;67.93;;;28.67;;
84288;SDS011;75147;50.294;18.660;2024-01-10T04:39:03;54.50;;;25.83;;
84288;SDS011;75147;50.294;18.660;2024-01-10T04:41:28;51.22;;;23.80;;
84288;SDS011;75147;50.294;18.660;2024-01-10T04:43:54;66.05;;;29.88;;
84288;SDS011;75147;50.294;18.660;2024-01-10T04:46:19;50.47;;;22.63;;
84288;SDS011;75147;50.294;18.660;2024-01-10T04:48:45;66.65;;;25.40;;
84288;SDS011;75147;50.294;18.660;2024-01-10T04:51:10;61.60;;;25.63;;
84288;SDS011;75147;50.294;18.660;2024-01-10T04:53:36;59.95;;;27.90;;
84288;SDS011;75147;50.294;18.660;2024-01-10T04:56:01;59.40;;;28.73;;
84288;SDS011;75147;50.294;18.660;2024-01-10T04:58:28;58.97;;;25.23;;
84288;SDS011;75147;50.294;18.660;2024-01-10T05:00:54;55.13;;;24.98;;
84288;SDS011;75147;50.294;18.660;2024-01-10T05:03:20;56.13;;;27.30;;
84288;SDS011;75147;50.294;18.660;2024-01-10T05:05:46;48.40;;;25.23;;
84288;SDS011;75147;50.294;18.660;2024-01-10T05:08:11;59.70;;;25.33;;
84288;SDS011;75147;50.294;18.660;2024-01-10T05:10:37;47.70;;;22.85;;
84288;SDS011;75147;50.294;18.660;2024-01-10T05:13:02;56.17;;;27.75;;
84288;SDS011;75147;50.294;18.660;2024-01-10T05:15:27;66.50;;;30.58;;
84288;SDS011;75147;50.294;18.660;2024-01-10T05:17:53;70.72;;;27.52;;
84288;SDS011;75147;50.294;18.660;2024-01-10T05:20:18;57.20;;;24.08;;
84288;SDS011;75147;50.294;18.660;2024-01-10T05:22:44;68.47;;;26.58;;
84288;SDS011;75147;50.294;18.660;2024-01-10T05:25:09;62.85;;;21.42;;
84288;SDS011;75147;50.294;18.660;2024-01-10T05:27:35;57.03;;;25.10;;
84288;SDS011;75147;50.294;18.660;2024-01-10T05:30:00;53.93;;;26.27;;
84288;SDS011;75147;50.294;18.660;2024-01-10T05:32:26;72.47;;;26.98;;
84288;SDS011;75147;50.294;18.660;2024-01-10T05:34:52;51.75;;;26.40;;
84288;SDS011;75147;50.294;18.660;2024-01-10T05:37:18;51.40;;;26.30;;
84288;SDS011;75147;50.294;18.660;2024-01-10T05:39:43;69.35;;;26.05;;
84288;SDS011;75147;50.294;18.660;2024-01-10T05:42:08;54.40;;;28.07;;
84288;SDS011;75147;50.294;18.660;2024-01-10T05:44:34;64.55;;;24.25;;
84288;SDS011;75147;50.294;18.660;2024-01-10T05:46:59;58.58;;;25.30;;
84288;SDS011;75147;50.294;18.660;2024-01-10T05:49:25;64.72;;;28.77;;
84288;SDS011;75147;50.294;18.660;2024-01-10T05:51:56;80.53;;;36.35;;
84288;SDS011;75147;50.294;18.660;2024-01-10T05:54:22;55.92;;;25.48;;
84288;SDS011;75147;50.294;18.660;2024-01-10T05:56:48;62.60;;;29.10;;
84288;SDS011;75147;50.294;18.660;2024-01-10T05:59:13;52.17;;;27.30;;
84288;SDS011;75147;50.294;18.660;2024-01-10T06:01:41;60.58;;;27.60;;
84288;SDS011;75147;50.294;18.660;2024-01-10T06:04:06;61.83;;;28.95;;
84288;SDS011;75147;50.294;18.660;2024-01-10T06:06:31;63.22;;;30.73;;
84288;SDS011;75147;50.294;18.660;2024-01-10T06:08:57;77.10;;;29.55;;
84288;SDS011;75147;50.294;18.660;2024-01-10T06:11:22;67.43;;;31.02;;
84288;SDS011;75147;50.294;18.660;2024-01-10T06:13:48;69.45;;;29.52;;
84288;SDS011;75147;50.294;18.660;2024-01-10T06:16:14;68.22;;;32.75;;
84288;SDS011;75147;50.294;18.660;2024-01-10T06:18:39;64.78;;;29.25;;
84288;SDS011;75147;50.294;18.660;2024-01-10T06:21:05;75.38;;;31.60;;
84288;SDS011;75147;50.294;18.660;2024-01-10T06:23:30;55.97;;;30.33;;
84288;SDS011;75147;50.294;18.660;2024-01-10T06:25:56;72.40;;;30.35;;
84288;SDS011;75147;50.294;18.660;2024-01-10T06:28:21;62.35;;;32.05;;
84288;SDS011;75147;50.294;18.660;2024-01-10T06:30:48;71.10;;;30.63;;
84288;SDS011;75147;50.294;18.660;2024-01-10T06:33:14;75.63;;;32.47;;
84288;SDS011;75147;50.294;18.660;2024-01-10T06:35:40;70.85;;;36.58;;
84288;SDS011;75147;50.294;18.660;2024-01-10T06:38:08;66.13;;;31.65;;
84288;SDS011;75147;50.294;18.660;2024-01-10T06:40:36;68.30;;;32.72;;
84288;SDS011;75147;50.294;18.660;2024-01-10T06:43:02;68.47;;;30.55;;
84288;SDS011;75147;50.294;18.660;2024-01-10T06:45:28;84.28;;;35.88;;
84288;SDS011;75147;50.294;18.660;2024-01-10T06:47:54;79.95;;;37.00;;
84288;SDS011;75147;50.294;18.660;2024-01-10T06:50:22;74.65;;;33.65;;
84288;SDS011;75147;50.294;18.660;2024-01-10T06:52:49;88.30;;;34.05;;
84288;SDS011;75147;50.294;18.660;2024-01-10T06:55:17;92.03;;;35.70;;
84288;SDS011;75147;50.294;18.660;2024-01-10T06:57:43;84.40;;;35.80;;
84288;SDS011;75147;50.294;18.660;2024-01-10T07:00:09;77.75;;;37.83;;
84288;SDS011;75147;50.294;18.660;2024-01-10T07:02:36;86.63;;;35.88;;
84288;SDS011;75147;50.294;18.660;2024-01-10T07:05:03;70.57;;;31.80;;
84288;SDS011;75147;50.294;18.660;2024-01-10T07:07:32;81.65;;;38.47;;
84288;SDS011;75147;50.294;18.660;2024-01-10T07:10:00;88.30;;;36.78;;
84288;SDS011;75147;50.294;18.660;2024-01-10T07:12:25;90.30;;;39.83;;
84288;SDS011;75147;50.294;18.660;2024-01-10T07:14:51;76.03;;;33.08;;
84288;SDS011;75147;50.294;18.660;2024-01-10T07:17:16;77.10;;;36.13;;
84288;SDS011;75147;50.294;18.660;2024-01-10T07:19:44;76.57;;;33.22;;
84288;SDS011;75147;50.294;18.660;2024-01-10T07:22:11;96.07;;;40.33;;
84288;SDS011;75147;50.294;18.660;2024-01-10T07:24:36;85.97;;;35.67;;
84288;SDS011;75147;50.294;18.660;2024-01-10T07:27:01;81.03;;;38.47;;
84288;SDS011;75147;50.294;18.660;2024-01-10T07:29:27;87.05;;;37.95;;
84288;SDS011;75147;50.294;18.660;2024-01-10T07:31:53;88.10;;;37.38;;
84288;SDS011;75147;50.294;18.660;2024-01-10T07:34:19;78.35;;;37.85;;
84288;SDS011;75147;50.294;18.660;2024-01-10T07:36:46;84.30;;;38.60;;
84288;SDS011;75147;50.294;18.660;2024-01-10T07:39:11;76.55;;;36.33;;
84288;SDS011;75147;50.294;18.660;2024-01-10T07:41:40;92.82;;;41.60;;
84288;SDS011;75147;50.294;18.660;2024-01-10T07:44:06;89.63;;;42.40;;
84288;SDS011;75147;50.294;18.660;2024-01-10T07:46:32;96.32;;;41.92;;
84288;SDS011;75147;50.294;18.660;2024-01-10T07:48:59;102.50;;;45.03;;
84288;SDS011;75147;50.294;18.660;2024-01-10T07:51:25;88.57;;;41.28;;
84288;SDS011;75147;50.294;18.660;2024-01-10T07:53:51;92.82;;;43.50;;
84288;SDS011;75147;50.294;18.660;2024-01-10T07:56:16;97.43;;;43.03;;
84288;SDS011;75147;50.294;18.660;2024-01-10T07:58:41;98.32;;;46.53;;
84288;SDS011;75147;50.294;18.660;2024-01-10T08:01:07;108.95;;;44.40;;
84288;SDS011;75147;50.294;18.660;2024-01-10T08:03:32;104.75;;;44.38;;
84288;SDS011;75147;50.294;18.660;2024-01-10T08:05:58;121.50;;;51.15;;
84288;SDS011;75147;50.294;18.660;2024-01-10T08:08:24;116.03;;;46.97;;
84288;SDS011;75147;50.294;18.660;2024-01-10T08:10:49;111.50;;;47.60;;
84288;SDS011;75147;50.294;18.660;2024-01-10T08:13:14;118.75;;;51.83;;
84288;SDS011;75147;50.294;18.660;2024-01-10T08:15:40;123.85;;;49.70;;
84288;SDS011;75147;50.294;18.660;2024-01-10T08:18:06;110.85;;;50.08;;
84288;SDS011;75147;50.294;18.660;2024-01-10T08:20:32;119.70;;;54.60;;
84288;SDS011;75147;50.294;18.660;2024-01-10T08:22:57;112.95;;;55.60;;
84288;SDS011;75147;50.294;18.660;2024-01-10T08:25:23;132.70;;;59.63;;
84288;SDS011;75147;50.294;18.660;2024-01-10T08:27:48;98.10;;;48.75;;
84288;SDS011;75147;50.294;18.660;2024-01-10T08:30:14;116.32;;;48.13;;
84288;SDS011;75147;50.294;18.660;2024-01-10T08:32:40;108.20;;;45.72;;
84288;SDS011;75147;50.294;18.660;2024-01-10T08:35:06;112.20;;;48.20;;
84288;SDS011;75147;50.294;18.660;2024-01-10T08:37:34;116.05;;;48.05;;
84288;SDS011;75147;50.294;18.660;2024-01-10T08:40:00;111.50;;;48.70;;
84288;SDS011;75147;50.294;18.660;2024-01-10T08:42:34;114.47;;;54.67;;
84288;SDS011;75147;50.294;18.660;2024-01-10T08:45:00;136.90;;;57.20;;
84288;SDS011;75147;50.294;18.660;2024-01-10T08:47:25;121.22;;;53.28;;
84288;SDS011;75147;50.294;18.660;2024-01-10T08:49:51;126.55;;;51.63;;
84288;SDS011;75147;50.294;18.660;2024-01-10T08:52:16;134.77;;;55.58;;
84288;SDS011;75147;50.294;18.660;2024-01-10T08:54:42;118.03;;;54.03;;
84288;SDS011;75147;50.294;18.660;2024-01-10T08:57:07;119.57;;;53.58;;
84288;SDS011;75147;50.294;18.660;2024-01-10T08:59:33;127.32;;;57.40;;
84288;SDS011;75147;50.294;18.660;2024-01-10T09:01:59;154.60;;;60.13;;
84288;SDS011;75147;50.294;18.660;2024-01-10T09:04:24;132.77;;;58.42;;
84288;SDS011;75147;50.294;18.660;2024-01-10T09:06:50;137.48;;;58.83;;
84288;SDS011;75147;50.294;18.660;2024-01-10T09:09:16;153.98;;;64.43;;
84288;SDS011;75147;50.294;18.660;2024-01-10T09:11:45;136.43;;;55.55;;
84288;SDS011;75147;50.294;18.660;2024-01-10T09:14:13;147.88;;;64.43;;
84288;SDS011;75147;50.294;18.660;2024-01-10T09:16:38;168.32;;;69.63;;
84288;SDS011;75147;50.294;18.660;2024-01-10T09:19:03;150.57;;;62.60;;
84288;SDS011;75147;50.294;18.660;2024-01-10T09:21:29;157.02;;;66.05;;
84288;SDS011;75147;50.294;18.660;2024-01-10T09:23:54;162.68;;;65.80;;
84288;SDS011;75147;50.294;18.660;2024-01-10T09:26:20;151.88;;;64.22;;
84288;SDS011;75147;50.294;18.660;2024-01-10T09:28:46;143.00;;;63.25;;
84288;SDS011;75147;50.294;18.660;2024-01-10T09:31:11;153.07;;;72.15;;
84288;SDS011;75147;50.294;18.660;2024-01-10T09:33:37;138.73;;;62.10;;
84288;SDS011;75147;50.294;18.660;2024-01-10T09:36:02;169.40;;;66.47;;
84288;SDS011;75147;50.294;18.660;2024-01-10T09:38:28;141.43;;;60.75;;
84288;SDS011;75147;50.294;18.660;2024-01-10T09:40:56;154.82;;;65.53;;
84288;SDS011;75147;50.294;18.660;2024-01-10T09:43:26;141.75;;;64.93;;
84288;SDS011;75147;50.294;18.660;2024-01-10T09:45:53;168.95;;;67.13;;
84288;SDS011;75147;50.294;18.660;2024-01-10T09:48:19;156.50;;;69.00;;
84288;SDS011;75147;50.294;18.660;2024-01-10T09:50:45;148.48;;;71.90;;
84288;SDS011;75147;50.294;18.660;2024-01-10T09:53:21;160.90;;;72.95;;
84288;SDS011;75147;50.294;18.660;2024-01-10T09:55:51;157.68;;;69.63;;
84288;SDS011;75147;50.294;18.660;2024-01-10T09:58:17;142.88;;;65.88;;
84288;SDS011;75147;50.294;18.660;2024-01-10T10:00:43;162.88;;;65.60;;
84288;SDS011;75147;50.294;18.660;2024-01-10T10:03:09;162.98;;;65.85;;
84288;SDS011;75147;50.294;18.660;2024-01-10T10:05:40;133.30;;;59.42;;
84288;SDS011;75147;50.294;18.660;2024-01-10T10:08:07;154.13;;;62.60;;
84288;SDS011;75147;50.294;18.660;2024-01-10T10:10:34;141.95;;;61.22;;
84288;SDS011;75147;50.294;18.660;2024-01-10T10:13:00;148.82;;;60.88;;
84288;SDS011;75147;50.294;18.660;2024-01-10T10:15:27;137.65;;;56.45;;
84288;SDS011;75147;50.294;18.660;2024-01-10T10:17:52;146.57;;;64.43;;
84288;SDS011;75147;50.294;18.660;2024-01-10T10:20:22;130.23;;;53.53;;
84288;SDS011;75147;50.294;18.660;2024-01-10T10:25:32;136.98;;;53.00;;
84288;SDS011;75147;50.294;18.660;2024-01-10T10:28:00;138.77;;;54.97;;
84288;SDS011;75147;50.294;18.660;2024-01-10T10:30:27;144.05;;;59.17;;
84288;SDS011;75147;50.294;18.660;2024-01-10T10:32:54;132.05;;;55.58;;
84288;SDS011;75147;50.294;18.660;2024-01-10T10:35:20;136.43;;;53.35;;
84288;SDS011;75147;50.294;18.660;2024-01-10T10:37:46;141.10;;;53.58;;
84288;SDS011;75147;50.294;18.660;2024-01-10T10:40:15;130.48;;;52.97;;
84288;SDS011;75147;50.294;18.660;2024-01-10T10:42:48;128.18;;;51.65;;
84288;SDS011;75147;50.294;18.660;2024-01-10T10:45:19;126.22;;;49.10;;
84288;SDS011;75147;50.294;18.660;2024-01-10T10:47:50;137.50;;;54.05;;
84288;SDS011;75147;50.294;18.660;2024-01-10T10:50:22;133.38;;;57.88;;
84288;SDS011;75147;50.294;18.660;2024-01-10T10:52:49;119.60;;;49.03;;
84288;SDS011;75147;50.294;18.660;2024-01-10T10:55:16;125.90;;;52.50;;
84288;SDS011;75147;50.294;18.660;2024-01-10T10:57:46;141.73;;;53.15;;
84288;SDS011;75147;50.294;18.660;2024-01-10T11:00:13;133.82;;;52.08;;
84288;SDS011;75147;50.294;18.660;2024-01-10T11:02:44;144.30;;;56.95;;
84288;SDS011;75147;50.294;18.660;2024-01-10T11:05:10;143.57;;;52.63;;
84288;SDS011;75147;50.294;18.660;2024-01-10T11:07:36;101.28;;;44.88;;
84288;SDS011;75147;50.294;18.660;2024-01-10T11:10:08;140.02;;;51.55;;
84288;SDS011;75147;50.294;18.660;2024-01-10T11:25:53;135.85;;;54.15;;
84288;SDS011;75147;50.294;18.660;2024-01-10T11:28:18;139.40;;;53.35;;
84288;SDS011;75147;50.294;18.660;2024-01-10T11:30:50;128.45;;;50.80;;
84288;SDS011;75147;50.294;18.660;2024-01-10T11:36:05;129.40;;;52.47;;
84288;SDS011;75147;50.294;18.660;2024-01-10T11:41:06;139.57;;;50.67;;
84288;SDS011;75147;50.294;18.660;2024-01-10T11:43:35;125.45;;;48.20;;
84288;SDS011;75147;50.294;18.660;2024-01-10T11:46:01;131.25;;;49.15;;
84288;SDS011;75147;50.294;18.660;2024-01-10T11:48:30;129.88;;;48.75;;
84288;SDS011;75147;50.294;18.660;2024-01-10T11:50:57;138.35;;;48.75;;
84288;SDS011;75147;50.294;18.660;2024-01-10T11:53:42;125.65;;;46.60;;
84288;SDS011;75147;50.294;18.660;2024-01-10T11:56:12;113.35;;;43.35;;
84288;SDS011;75147;50.294;18.660;2024-01-10T12:01:27;108.00;;;41.53;;
84288;SDS011;75147;50.294;18.660;2024-01-10T12:03:52;112.00;;;41.53;;
84288;SDS011;75147;50.294;18.660;2024-01-10T12:06:20;113.38;;;42.30;;
84288;SDS011;75147;50.294;18.660;2024-01-10T12:08:46;110.03;;;39.85;;
84288;SDS011;75147;50.294;18.660;2024-01-10T12:11:12;112.25;;;43.15;;
84288;SDS011;75147;50.294;18.660;2024-01-10T12:13:37;113.65;;;44.85;;
84288;SDS011;75147;50.294;18.660;2024-01-10T12:16:03;123.03;;;46.95;;
84288;SDS011;75147;50.294;18.660;2024-01-10T12:18:28;121.50;;;47.97;;
84288;SDS011;75147;50.294;18.660;2024-01-10T12:20:53;121.60;;;46.58;;
84288;SDS011;75147;50.294;18.660;2024-01-10T12:23:19;119.43;;;42.83;;
84288;SDS011;75147;50.294;18.660;2024-01-10T12:25:44;99.63;;;40.20;;
84288;SDS011;75147;50.294;18.660;2024-01-10T12:28:15;125.38;;;43.85;;
84288;SDS011;75147;50.294;18.660;2024-01-10T12:30:41;121.22;;;46.08;;
84288;SDS011;75147;50.294;18.660;2024-01-10T12:33:08;115.00;;;45.38;;
84288;SDS011;75147;50.294;18.660;2024-01-10T12:35:34;106.18;;;39.45;;
84288;SDS011;75147;50.294;18.660;2024-01-10T12:37:59;97.50;;;37.27;;
84288;SDS011;75147;50.294;18.660;2024-01-10T12:40:24;102.37;;;37.60;;
84288;SDS011;75147;50.294;18.660;2024-01-10T12:43:01;98.78;;;39.22;;
84288;SDS011;75147;50.294;18.660;2024-01-10T12:45:28;99.13;;;38.47;;
84288;SDS011;75147;50.294;18.660;2024-01-10T12:47:53;91.50;;;35.95;;
84288;SDS011;75147;50.294;18.660;2024-01-10T12:50:19;107.93;;;38.70;;
84288;SDS011;75147;50.294;18.660;2024-01-10T12:52:44;103.13;;;38.83;;
84288;SDS011;75147;50.294;18.660;2024-01-10T12:55:10;108.93;;;45.40;;
84288;SDS011;75147;50.294;18.660;2024-01-10T12:57:36;132.52;;;48.80;;
84288;SDS011;75147;50.294;18.660;2024-01-10T13:00:01;119.35;;;49.05;;
84288;SDS011;75147;50.294;18.660;2024-01-10T13:02:31;123.90;;;44.20;;
84288;SDS011;75147;50.294;18.660;2024-01-10T13:07:27;110.22;;;44.17;;
84288;SDS011;75147;50.294;18.660;2024-01-10T13:09:56;122.00;;;46.38;;
84288;SDS011;75147;50.294;18.660;2024-01-10T13:12:21;110.28;;;44.80;;
84288;SDS011;75147;50.294;18.660;2024-01-10T13:14:46;120.40;;;47.05;;
84288;SDS011;75147;50.294;18.660;2024-01-10T13:17:12;115.83;;;43.67;;
84288;SDS011;75147;50.294;18.660;2024-01-10T13:19:37;119.90;;;51.13;;
84288;SDS011;75147;50.294;18.660;2024-01-10T13:22:03;119.32;;;45.72;;
84288;SDS011;75147;50.294;18.660;2024-01-10T13:24:28;121.43;;;46.38;;
84288;SDS011;75147;50.294;18.660;2024-01-10T13:26:54;134.45;;;45.42;;
84288;SDS011;75147;50.294;18.660;2024-01-10T13:29:20;120.25;;;44.85;;
84288;SDS011;75147;50.294;18.660;2024-01-10T13:31:46;115.18;;;42.85;;
84288;SDS011;75147;50.294;18.660;2024-01-10T13:34:14;122.47;;;44.20;;
84288;SDS011;75147;50.294;18.660;2024-01-10T13:36:39;124.43;;;46.00;;
84288;SDS011;75147;50.294;18.660;2024-01-10T13:39:05;125.67;;;45.67;;
84288;SDS011;75147;50.294;18.660;2024-01-10T13:41:30;125.32;;;49.05;;
84288;SDS011;75147;50.294;18.660;2024-01-10T13:43:56;113.40;;;44.13;;
84288;SDS011;75147;50.294;18.660;2024-01-10T13:46:21;119.18;;;46.92;;
84288;SDS011;75147;50.294;18.660;2024-01-10T13:48:47;112.75;;;45.85;;
84288;SDS011;75147;50.294;18.660;2024-01-10T13:51:12;120.53;;;46.45;;
84288;SDS011;75147;50.294;18.660;2024-01-10T13:53:37;125.90;;;48.83;;
84288;SDS011;75147;50.294;18.660;2024-01-10T13:56:03;131.17;;;47.70;;
84288;SDS011;75147;50.294;18.660;2024-01-10T13:58:28;127.65;;;50.30;;
84288;SDS011;75147;50.294;18.660;2024-01-10T14:00:54;125.35;;;49.17;;
84288;SDS011;75147;50.294;18.660;2024-01-10T14:03:19;111.93;;;46.30;;
84288;SDS011;75147;50.294;18.660;2024-01-10T14:05:44;123.82;;;49.67;;
84288;SDS011;75147;50.294;18.660;2024-01-10T14:08:10;135.52;;;49.47;;
84288;SDS011;75147;50.294;18.660;2024-01-10T14:10:36;124.25;;;48.67;;
84288;SDS011;75147;50.294;18.660;2024-01-10T14:13:02;128.77;;;49.03;;
84288;SDS011;75147;50.294;18.660;2024-01-10T14:15:28;133.68;;;53.58;;
84288;SDS011;75147;50.294;18.660;2024-01-10T14:17:54;138.43;;;52.58;;
84288;SDS011;75147;50.294;18.660;2024-01-10T14:20:21;118.65;;;47.83;;
84288;SDS011;75147;50.294;18.660;2024-01-10T14:22:47;133.02;;;52.05;;
84288;SDS011;75147;50.294;18.660;2024-01-10T14:25:12;127.63;;;49.50;;